sensor_id;sensor_type;location;lat;lon;timestamp;pressure;altitude;pressure_sealevel;temperature
69420;BMP280;71621;52.030;113.516;2023-09-19T00:02:17;94054.66;;;6.78
69420;BMP280;71621;52.030;113.516;2023-09-19T00:05:21;94062.19;;;6.83
69420;BMP280;71621;52.030;113.516;2023-09-19T00:08:27;94056.91;;;6.99
69420;BMP280;71621;52.030;113.516;2023-09-19T00:11:30;94059.22;;;7.22
69420;BMP280;71621;52.030;113.516;2023-09-19T00:14:35;94054.78;;;7.43
69420;BMP280;71621;52.030;113.516;2023-09-19T00:17:38;94054.63;;;7.54
69420;BMP280;71621;52.030;113.516;2023-09-19T00:20:43;94060.50;;;7.69
69420;BMP280;71621;52.030;113.516;2023-09-19T00:23:50;94059.38;;;7.89
69420;BMP280;71621;52.030;113.516;2023-09-19T00:26:54;94059.56;;;8.11
69420;BMP280;71621;52.030;113.516;2023-09-19T00:30:02;94057.91;;;8.20
69420;BMP280;71621;52.030;113.516;2023-09-19T00:33:07;94057.53;;;8.27
69420;BMP280;71621;52.030;113.516;2023-09-19T00:36:10;94059.66;;;8.31
69420;BMP280;71621;52.030;113.516;2023-09-19T00:39:14;94060.66;;;8.40
69420;BMP280;71621;52.030;113.516;2023-09-19T00:42:21;94052.97;;;8.48
69420;BMP280;71621;52.030;113.516;2023-09-19T00:45:25;94064.72;;;8.58
69420;BMP280;71621;52.030;113.516;2023-09-19T00:48:29;94067.91;;;8.73
69420;BMP280;71621;52.030;113.516;2023-09-19T00:51:34;94074.13;;;8.79
69420;BMP280;71621;52.030;113.516;2023-09-19T00:54:38;94063.31;;;8.93
69420;BMP280;71621;52.030;113.516;2023-09-19T00:57:42;94062.78;;;8.97
69420;BMP280;71621;52.030;113.516;2023-09-19T01:00:49;94069.34;;;9.13
69420;BMP280;71621;52.030;113.516;2023-09-19T01:03:54;94074.66;;;9.31
69420;BMP280;71621;52.030;113.516;2023-09-19T01:06:57;94072.28;;;9.39
69420;BMP280;71621;52.030;113.516;2023-09-19T01:10:06;94070.16;;;9.55
69420;BMP280;71621;52.030;113.516;2023-09-19T01:13:35;94075.97;;;9.70
69420;BMP280;71621;52.030;113.516;2023-09-19T01:16:57;94068.78;;;9.74
69420;BMP280;71621;52.030;113.516;2023-09-19T01:20:08;94068.38;;;9.82
69420;BMP280;71621;52.030;113.516;2023-09-19T01:30:14;94066.53;;;10.08
69420;BMP280;71621;52.030;113.516;2023-09-19T01:33:17;94074.66;;;10.12
69420;BMP280;71621;52.030;113.516;2023-09-19T01:36:24;94076.16;;;10.17
69420;BMP280;71621;52.030;113.516;2023-09-19T01:39:27;94079.59;;;10.20
69420;BMP280;71621;52.030;113.516;2023-09-19T01:46:09;94078.41;;;10.47
69420;BMP280;71621;52.030;113.516;2023-09-19T01:49:42;94087.53;;;10.62
69420;BMP280;71621;52.030;113.516;2023-09-19T01:52:57;94082.44;;;10.70
69420;BMP280;71621;52.030;113.516;2023-09-19T01:56:02;94082.03;;;10.79
69420;BMP280;71621;52.030;113.516;2023-09-19T01:59:13;94077.78;;;10.94
69420;BMP280;71621;52.030;113.516;2023-09-19T02:02:17;94074.72;;;11.04
69420;BMP280;71621;52.030;113.516;2023-09-19T02:05:25;94074.28;;;11.13
69420;BMP280;71621;52.030;113.516;2023-09-19T02:08:30;94069.22;;;11.23
69420;BMP280;71621;52.030;113.516;2023-09-19T02:11:36;94075.59;;;11.36
69420;BMP280;71621;52.030;113.516;2023-09-19T02:14:41;94066.53;;;11.47
69420;BMP280;71621;52.030;113.516;2023-09-19T02:17:44;94064.03;;;11.55
69420;BMP280;71621;52.030;113.516;2023-09-19T02:20:49;94059.56;;;11.64
69420;BMP280;71621;52.030;113.516;2023-09-19T02:23:54;94054.41;;;11.72
69420;BMP280;71621;52.030;113.516;2023-09-19T02:26:57;94061.91;;;11.78
69420;BMP280;71621;52.030;113.516;2023-09-19T02:30:02;94056.19;;;11.89
69420;BMP280;71621;52.030;113.516;2023-09-19T02:33:06;94051.75;;;12.00
69420;BMP280;71621;52.030;113.516;2023-09-19T02:36:11;94051.25;;;12.08
69420;BMP280;71621;52.030;113.516;2023-09-19T02:39:15;94049.44;;;12.16
69420;BMP280;71621;52.030;113.516;2023-09-19T02:42:19;94056.44;;;12.29
69420;BMP280;71621;52.030;113.516;2023-09-19T02:45:23;94050.00;;;12.41
69420;BMP280;71621;52.030;113.516;2023-09-19T02:48:27;94046.16;;;12.50
69420;BMP280;71621;52.030;113.516;2023-09-19T02:51:30;94047.69;;;12.59
69420;BMP280;71621;52.030;113.516;2023-09-19T02:54:35;94049.81;;;12.64
69420;BMP280;71621;52.030;113.516;2023-09-19T02:57:38;94038.59;;;12.72
69420;BMP280;71621;52.030;113.516;2023-09-19T03:00:46;94040.13;;;12.83
69420;BMP280;71621;52.030;113.516;2023-09-19T03:03:51;94040.34;;;12.93
69420;BMP280;71621;52.030;113.516;2023-09-19T03:06:56;94032.41;;;12.99
69420;BMP280;71621;52.030;113.516;2023-09-19T03:10:05;94035.94;;;13.08
69420;BMP280;71621;52.030;113.516;2023-09-19T03:13:09;94031.25;;;13.11
69420;BMP280;71621;52.030;113.516;2023-09-19T03:16:13;94025.47;;;13.22
69420;BMP280;71621;52.030;113.516;2023-09-19T03:19:19;94024.38;;;13.38
69420;BMP280;71621;52.030;113.516;2023-09-19T03:22:23;94020.41;;;13.41
69420;BMP280;71621;52.030;113.516;2023-09-19T03:25:28;94026.53;;;13.45
69420;BMP280;71621;52.030;113.516;2023-09-19T03:28:33;94024.03;;;13.57
69420;BMP280;71621;52.030;113.516;2023-09-19T03:31:38;94020.16;;;13.64
69420;BMP280;71621;52.030;113.516;2023-09-19T03:34:43;94020.91;;;13.71
69420;BMP280;71621;52.030;113.516;2023-09-19T03:37:47;94002.13;;;13.73
69420;BMP280;71621;52.030;113.516;2023-09-19T03:40:51;94010.34;;;13.83
69420;BMP280;71621;52.030;113.516;2023-09-19T03:43:56;94011.81;;;13.90
69420;BMP280;71621;52.030;113.516;2023-09-19T03:47:00;94001.88;;;14.01
69420;BMP280;71621;52.030;113.516;2023-09-19T03:50:05;93998.69;;;14.13
69420;BMP280;71621;52.030;113.516;2023-09-19T03:53:09;94008.25;;;14.24
69420;BMP280;71621;52.030;113.516;2023-09-19T03:56:13;93999.75;;;14.39
69420;BMP280;71621;52.030;113.516;2023-09-19T03:59:16;93997.16;;;14.50
69420;BMP280;71621;52.030;113.516;2023-09-19T04:02:22;94000.56;;;14.52
69420;BMP280;71621;52.030;113.516;2023-09-19T04:05:26;93996.50;;;14.49
69420;BMP280;71621;52.030;113.516;2023-09-19T04:08:30;93989.06;;;14.48
69420;BMP280;71621;52.030;113.516;2023-09-19T04:11:33;93991.09;;;14.49
69420;BMP280;71621;52.030;113.516;2023-09-19T04:14:37;93989.13;;;14.52
69420;BMP280;71621;52.030;113.516;2023-09-19T04:17:41;93981.75;;;14.54
69420;BMP280;71621;52.030;113.516;2023-09-19T04:20:49;93986.53;;;14.58
69420;BMP280;71621;52.030;113.516;2023-09-19T04:23:53;93986.59;;;14.66
69420;BMP280;71621;52.030;113.516;2023-09-19T04:26:56;93979.19;;;14.64
69420;BMP280;71621;52.030;113.516;2023-09-19T04:30:02;93988.03;;;14.73
69420;BMP280;71621;52.030;113.516;2023-09-19T04:33:13;93984.13;;;14.86
69420;BMP280;71621;52.030;113.516;2023-09-19T04:36:17;93992.94;;;14.91
69420;BMP280;71621;52.030;113.516;2023-09-19T04:39:37;93984.19;;;14.88
69420;BMP280;71621;52.030;113.516;2023-09-19T04:42:41;93987.50;;;14.87
69420;BMP280;71621;52.030;113.516;2023-09-19T04:45:45;93985.50;;;14.87
69420;BMP280;71621;52.030;113.516;2023-09-19T04:48:49;93976.13;;;14.92
69420;BMP280;71621;52.030;113.516;2023-09-19T04:51:53;93974.81;;;14.93
69420;BMP280;71621;52.030;113.516;2023-09-19T04:54:56;93976.94;;;15.07
69420;BMP280;71621;52.030;113.516;2023-09-19T04:58:00;93980.44;;;15.20
69420;BMP280;71621;52.030;113.516;2023-09-19T05:01:03;93972.41;;;15.26
69420;BMP280;71621;52.030;113.516;2023-09-19T05:04:07;93972.44;;;15.28
69420;BMP280;71621;52.030;113.516;2023-09-19T05:07:10;93965.69;;;15.27
69420;BMP280;71621;52.030;113.516;2023-09-19T05:10:15;93969.03;;;15.23
69420;BMP280;71621;52.030;113.516;2023-09-19T05:13:21;93964.47;;;15.40
69420;BMP280;71621;52.030;113.516;2023-09-19T05:16:29;93964.59;;;15.58
69420;BMP280;71621;52.030;113.516;2023-09-19T05:19:36;93958.59;;;15.66
69420;BMP280;71621;52.030;113.516;2023-09-19T05:22:42;93960.69;;;15.77
69420;BMP280;71621;52.030;113.516;2023-09-19T05:25:46;93949.28;;;15.85
69420;BMP280;71621;52.030;113.516;2023-09-19T05:28:50;93945.97;;;15.93
69420;BMP280;71621;52.030;113.516;2023-09-19T05:31:53;93950.72;;;16.00
69420;BMP280;71621;52.030;113.516;2023-09-19T05:34:57;93944.69;;;16.12
69420;BMP280;71621;52.030;113.516;2023-09-19T05:38:01;93935.28;;;16.13
69420;BMP280;71621;52.030;113.516;2023-09-19T05:41:05;93937.34;;;16.16
69420;BMP280;71621;52.030;113.516;2023-09-19T05:44:10;93931.94;;;16.14
69420;BMP280;71621;52.030;113.516;2023-09-19T05:47:13;93927.19;;;16.11
69420;BMP280;71621;52.030;113.516;2023-09-19T05:50:17;93920.41;;;16.04
69420;BMP280;71621;52.030;113.516;2023-09-19T05:53:21;93919.06;;;16.05
69420;BMP280;71621;52.030;113.516;2023-09-19T05:56:26;93909.66;;;16.10
69420;BMP280;71621;52.030;113.516;2023-09-19T05:59:30;93914.41;;;16.22
69420;BMP280;71621;52.030;113.516;2023-09-19T06:02:33;93915.16;;;16.34
69420;BMP280;71621;52.030;113.516;2023-09-19T06:05:37;93913.81;;;16.41
69420;BMP280;71621;52.030;113.516;2023-09-19T06:08:44;93905.06;;;16.51
69420;BMP280;71621;52.030;113.516;2023-09-19T06:11:48;93909.81;;;16.61
69420;BMP280;71621;52.030;113.516;2023-09-19T06:14:52;93910.50;;;16.63
69420;BMP280;71621;52.030;113.516;2023-09-19T06:17:58;93912.53;;;16.59
69420;BMP280;71621;52.030;113.516;2023-09-19T06:21:02;93904.44;;;16.56
69420;BMP280;71621;52.030;113.516;2023-09-19T06:24:10;93901.75;;;16.59
69420;BMP280;71621;52.030;113.516;2023-09-19T06:27:14;93900.38;;;16.62
69420;BMP280;71621;52.030;113.516;2023-09-19T06:30:18;93901.03;;;16.60
69420;BMP280;71621;52.030;113.516;2023-09-19T06:33:21;93890.97;;;16.69
69420;BMP280;71621;52.030;113.516;2023-09-19T06:36:25;93881.53;;;16.88
69420;BMP280;71621;52.030;113.516;2023-09-19T06:39:29;93879.50;;;16.94
69420;BMP280;71621;52.030;113.516;2023-09-19T06:42:36;93876.78;;;16.90
69420;BMP280;71621;52.030;113.516;2023-09-19T06:45:40;93872.09;;;16.87
69420;BMP280;71621;52.030;113.516;2023-09-19T06:48:43;93868.72;;;16.86
69420;BMP280;71621;52.030;113.516;2023-09-19T06:51:47;93867.34;;;16.91
69420;BMP280;71621;52.030;113.516;2023-09-19T06:54:52;93874.78;;;16.93
69420;BMP280;71621;52.030;113.516;2023-09-19T06:57:56;93869.38;;;16.99
69420;BMP280;71621;52.030;113.516;2023-09-19T07:01:00;93861.28;;;16.97
69420;BMP280;71621;52.030;113.516;2023-09-19T07:04:05;93868.03;;;16.98
69420;BMP280;71621;52.030;113.516;2023-09-19T07:07:08;93859.25;;;16.98
69420;BMP280;71621;52.030;113.516;2023-09-19T07:10:13;93863.31;;;17.07
69420;BMP280;71621;52.030;113.516;2023-09-19T07:13:17;93855.88;;;17.11
69420;BMP280;71621;52.030;113.516;2023-09-19T07:16:21;93855.88;;;17.15
69420;BMP280;71621;52.030;113.516;2023-09-19T07:19:32;93853.16;;;17.21
69420;BMP280;71621;52.030;113.516;2023-09-19T07:22:36;93851.78;;;17.30
69420;BMP280;71621;52.030;113.516;2023-09-19T07:25:42;93840.97;;;17.37
69420;BMP280;71621;52.030;113.516;2023-09-19T07:28:46;93838.28;;;17.43
69420;BMP280;71621;52.030;113.516;2023-09-19T07:31:49;93840.28;;;17.54
69420;BMP280;71621;52.030;113.516;2023-09-19T07:34:53;93836.84;;;17.66
69420;BMP280;71621;52.030;113.516;2023-09-19T07:37:58;93837.53;;;17.66
69420;BMP280;71621;52.030;113.516;2023-09-19T07:41:04;93827.38;;;17.67
69420;BMP280;71621;52.030;113.516;2023-09-19T07:44:08;93832.16;;;17.56
69420;BMP280;71621;52.030;113.516;2023-09-19T07:47:15;93820.00;;;17.59
69420;BMP280;71621;52.030;113.516;2023-09-19T07:50:19;93815.25;;;17.68
69420;BMP280;71621;52.030;113.516;2023-09-19T07:53:23;93811.84;;;17.72
69420;BMP280;71621;52.030;113.516;2023-09-19T07:56:27;93811.84;;;17.74
69420;BMP280;71621;52.030;113.516;2023-09-19T07:59:30;93812.47;;;17.80
69420;BMP280;71621;52.030;113.516;2023-09-19T08:02:38;93801.63;;;17.90
69420;BMP280;71621;52.030;113.516;2023-09-19T08:05:41;93800.91;;;17.98
69420;BMP280;71621;52.030;113.516;2023-09-19T08:08:47;93800.91;;;18.00
69420;BMP280;71621;52.030;113.516;2023-09-19T08:11:53;93799.53;;;18.01
69420;BMP280;71621;52.030;113.516;2023-09-19T08:14:57;93796.84;;;18.01
69420;BMP280;71621;52.030;113.516;2023-09-19T08:18:01;93792.13;;;17.97
69420;BMP280;71621;52.030;113.516;2023-09-19T08:21:05;93790.75;;;17.94
69420;BMP280;71621;52.030;113.516;2023-09-19T08:24:13;93794.19;;;17.85
69420;BMP280;71621;52.030;113.516;2023-09-19T08:27:18;93783.41;;;17.83
69420;BMP280;71621;52.030;113.516;2023-09-19T08:30:22;93778.00;;;17.81
69420;BMP280;71621;52.030;113.516;2023-09-19T08:33:27;93780.03;;;17.84
69420;BMP280;71621;52.030;113.516;2023-09-19T08:36:31;93779.97;;;17.88
69420;BMP280;71621;52.030;113.516;2023-09-19T08:39:34;93779.31;;;17.90
69420;BMP280;71621;52.030;113.516;2023-09-19T08:46:20;93777.91;;;17.95
69420;BMP280;71621;52.030;113.516;2023-09-19T08:53:10;93776.50;;;18.12
69420;BMP280;71621;52.030;113.516;2023-09-19T08:56:18;93772.44;;;18.05
69420;BMP280;71621;52.030;113.516;2023-09-19T08:59:23;93781.28;;;17.97
69420;BMP280;71621;52.030;113.516;2023-09-19T09:02:27;93773.22;;;17.87
69420;BMP280;71621;52.030;113.516;2023-09-19T09:05:32;93768.50;;;17.86
69420;BMP280;71621;52.030;113.516;2023-09-19T09:08:40;93767.22;;;17.79
69420;BMP280;71621;52.030;113.516;2023-09-19T09:11:43;93767.88;;;17.75
69420;BMP280;71621;52.030;113.516;2023-09-19T09:14:47;93769.25;;;17.70
69420;BMP280;71621;52.030;113.516;2023-09-19T09:17:53;93770.63;;;17.65
69420;BMP280;71621;52.030;113.516;2023-09-19T09:20:57;93763.91;;;17.56
69420;BMP280;71621;52.030;113.516;2023-09-19T09:24:29;93761.22;;;17.54
69420;BMP280;71621;52.030;113.516;2023-09-19T09:27:35;93763.97;;;17.42
69420;BMP280;71621;52.030;113.516;2023-09-19T09:30:38;93752.50;;;17.35
69420;BMP280;71621;52.030;113.516;2023-09-19T09:33:53;93757.88;;;17.41
69420;BMP280;71621;52.030;113.516;2023-09-19T09:36:57;93754.50;;;17.37
69420;BMP280;71621;52.030;113.516;2023-09-19T09:40:02;93755.22;;;17.35
69420;BMP280;71621;52.030;113.516;2023-09-19T09:43:34;93755.22;;;17.37
69420;BMP280;71621;52.030;113.516;2023-09-19T09:46:42;93755.91;;;17.29
69420;BMP280;71621;52.030;113.516;2023-09-19T09:49:55;93752.56;;;17.19
69420;BMP280;71621;52.030;113.516;2023-09-19T09:53:27;93750.53;;;17.13
69420;BMP280;71621;52.030;113.516;2023-09-19T09:56:33;93757.31;;;17.06
69420;BMP280;71621;52.030;113.516;2023-09-19T09:59:54;93754.59;;;17.08
69420;BMP280;71621;52.030;113.516;2023-09-19T10:03:20;93757.97;;;17.01
69420;BMP280;71621;52.030;113.516;2023-09-19T10:06:24;93764.03;;;16.95
69420;BMP280;71621;52.030;113.516;2023-09-19T10:09:28;93760.03;;;16.84
69420;BMP280;71621;52.030;113.516;2023-09-19T10:12:34;93760.06;;;16.68
69420;BMP280;71621;52.030;113.516;2023-09-19T10:15:48;93756.66;;;16.61
69420;BMP280;71621;52.030;113.516;2023-09-19T10:23:05;93758.03;;;16.46
69420;BMP280;71621;52.030;113.516;2023-09-19T10:26:17;93760.03;;;16.39
69420;BMP280;71621;52.030;113.516;2023-09-19T10:29:21;93764.09;;;16.34
69420;BMP280;71621;52.030;113.516;2023-09-19T10:32:25;93758.69;;;16.30
69420;BMP280;71621;52.030;113.516;2023-09-19T10:35:32;93764.06;;;16.24
69420;BMP280;71621;52.030;113.516;2023-09-19T10:38:39;93766.06;;;16.11
69420;BMP280;71621;52.030;113.516;2023-09-19T10:41:53;93775.47;;;15.98
69420;BMP280;71621;52.030;113.516;2023-09-19T10:45:04;93777.47;;;15.88
69420;BMP280;71621;52.030;113.516;2023-09-19T10:48:16;93781.44;;;15.74
69420;BMP280;71621;52.030;113.516;2023-09-19T10:51:26;93786.13;;;15.64
69420;BMP280;71621;52.030;113.516;2023-09-19T10:54:35;93786.06;;;15.52
69420;BMP280;71621;52.030;113.516;2023-09-19T10:57:44;93786.69;;;15.42
69420;BMP280;71621;52.030;113.516;2023-09-19T11:00:56;93783.28;;;15.35
69420;BMP280;71621;52.030;113.516;2023-09-19T11:04:24;93788.00;;;15.35
69420;BMP280;71621;52.030;113.516;2023-09-19T11:07:29;93775.81;;;15.26
69420;BMP280;71621;52.030;113.516;2023-09-19T11:10:50;93789.31;;;15.28
69420;BMP280;71621;52.030;113.516;2023-09-19T11:17:36;93788.59;;;15.21
69420;BMP280;71621;52.030;113.516;2023-09-19T11:20:40;93787.84;;;15.08
69420;BMP280;71621;52.030;113.516;2023-09-19T11:27:15;93786.47;;;15.05
69420;BMP280;71621;52.030;113.516;2023-09-19T11:30:27;93783.78;;;15.07
69420;BMP280;71621;52.030;113.516;2023-09-19T11:33:33;93788.47;;;15.03
69420;BMP280;71621;52.030;113.516;2023-09-19T11:36:40;93785.78;;;14.99
69420;BMP280;71621;52.030;113.516;2023-09-19T11:40:09;93794.47;;;14.97
69420;BMP280;71621;52.030;113.516;2023-09-19T11:43:38;93791.09;;;14.95
69420;BMP280;71621;52.030;113.516;2023-09-19T11:46:54;93790.44;;;14.92
69420;BMP280;71621;52.030;113.516;2023-09-19T11:50:01;93794.38;;;14.83
69420;BMP280;71621;52.030;113.516;2023-09-19T11:53:05;93791.59;;;14.73
69420;BMP280;71621;52.030;113.516;2023-09-19T11:56:09;93797.66;;;14.71
69420;BMP280;71621;52.030;113.516;2023-09-19T11:59:23;93807.00;;;14.64
69420;BMP280;71621;52.030;113.516;2023-09-19T12:02:39;93800.19;;;14.55
69420;BMP280;71621;52.030;113.516;2023-09-19T12:05:45;93806.13;;;14.42
69420;BMP280;71621;52.030;113.516;2023-09-19T12:08:49;93802.66;;;14.29
69420;BMP280;71621;52.030;113.516;2023-09-19T12:11:53;93805.88;;;14.15
69420;BMP280;71621;52.030;113.516;2023-09-19T12:14:57;93801.03;;;14.06
69420;BMP280;71621;52.030;113.516;2023-09-19T12:18:02;93811.72;;;13.97
69420;BMP280;71621;52.030;113.516;2023-09-19T12:21:07;93812.84;;;13.82
69420;BMP280;71621;52.030;113.516;2023-09-19T12:24:15;93819.41;;;13.67
69420;BMP280;71621;52.030;113.516;2023-09-19T12:27:22;93821.25;;;13.54
69420;BMP280;71621;52.030;113.516;2023-09-19T12:30:28;93817.06;;;13.43
69420;BMP280;71621;52.030;113.516;2023-09-19T12:33:39;93826.25;;;13.28
69420;BMP280;71621;52.030;113.516;2023-09-19T12:36:43;93827.34;;;13.13
69420;BMP280;71621;52.030;113.516;2023-09-19T12:39:50;93829.84;;;13.01
69420;BMP280;71621;52.030;113.516;2023-09-19T12:42:56;93828.97;;;12.88
69420;BMP280;71621;52.030;113.516;2023-09-19T12:46:05;93835.56;;;12.81
69420;BMP280;71621;52.030;113.516;2023-09-19T12:49:18;93827.41;;;12.75
69420;BMP280;71621;52.030;113.516;2023-09-19T12:52:22;93828.50;;;12.59
69420;BMP280;71621;52.030;113.516;2023-09-19T12:55:30;93827.72;;;12.53
69420;BMP280;71621;52.030;113.516;2023-09-19T12:58:55;93826.91;;;12.46
69420;BMP280;71621;52.030;113.516;2023-09-19T13:02:05;93829.41;;;12.36
69420;BMP280;71621;52.030;113.516;2023-09-19T13:05:17;93815.75;;;12.22
69420;BMP280;71621;52.030;113.516;2023-09-19T13:08:31;93820.34;;;12.17
69420;BMP280;71621;52.030;113.516;2023-09-19T13:11:41;93819.41;;;12.03
69420;BMP280;71621;52.030;113.516;2023-09-19T13:14:47;93827.22;;;11.92
69420;BMP280;71621;52.030;113.516;2023-09-19T13:17:53;93828.38;;;11.83
69420;BMP280;71621;52.030;113.516;2023-09-19T13:21:09;93824.25;;;11.76
69420;BMP280;71621;52.030;113.516;2023-09-19T13:24:22;93824.75;;;11.71
69420;BMP280;71621;52.030;113.516;2023-09-19T13:27:29;93824.63;;;11.65
69420;BMP280;71621;52.030;113.516;2023-09-19T13:30:37;93823.25;;;11.62
69420;BMP280;71621;52.030;113.516;2023-09-19T13:33:47;93822.97;;;11.49
69420;BMP280;71621;52.030;113.516;2023-09-19T13:36:50;93828.13;;;11.39
69420;BMP280;71621;52.030;113.516;2023-09-19T13:39:54;93817.19;;;11.29
69420;BMP280;71621;52.030;113.516;2023-09-19T13:42:57;93821.84;;;11.29
69420;BMP280;71621;52.030;113.516;2023-09-19T13:46:01;93825.06;;;11.23
69420;BMP280;71621;52.030;113.516;2023-09-19T13:49:05;93818.94;;;11.18
69420;BMP280;71621;52.030;113.516;2023-09-19T13:52:09;93821.53;;;11.14
69420;BMP280;71621;52.030;113.516;2023-09-19T13:55:12;93820.16;;;11.13
69420;BMP280;71621;52.030;113.516;2023-09-19T13:58:17;93814.13;;;11.13
69420;BMP280;71621;52.030;113.516;2023-09-19T14:01:21;93819.47;;;11.13
69420;BMP280;71621;52.030;113.516;2023-09-19T14:04:25;93813.38;;;11.08
69420;BMP280;71621;52.030;113.516;2023-09-19T14:07:28;93824.53;;;11.01
69420;BMP280;71621;52.030;113.516;2023-09-19T14:10:32;93817.59;;;10.89
69420;BMP280;71621;52.030;113.516;2023-09-19T14:13:36;93819.38;;;10.81
69420;BMP280;71621;52.030;113.516;2023-09-19T14:16:40;93851.66;;;10.89
69420;BMP280;71621;52.030;113.516;2023-09-19T14:19:45;93828.19;;;10.59
69420;BMP280;71621;52.030;113.516;2023-09-19T14:22:48;93823.44;;;10.56
69420;BMP280;71621;52.030;113.516;2023-09-19T14:25:52;93827.16;;;10.45
69420;BMP280;71621;52.030;113.516;2023-09-19T14:28:56;93819.50;;;10.33
69420;BMP280;71621;52.030;113.516;2023-09-19T14:32:02;93828.03;;;10.28
69420;BMP280;71621;52.030;113.516;2023-09-19T14:35:07;93839.91;;;10.22
69420;BMP280;71621;52.030;113.516;2023-09-19T14:38:12;93835.47;;;10.07
69420;BMP280;71621;52.030;113.516;2023-09-19T14:41:17;93840.47;;;9.95
69420;BMP280;71621;52.030;113.516;2023-09-19T14:44:20;93849.47;;;9.82
69420;BMP280;71621;52.030;113.516;2023-09-19T14:47:25;93837.75;;;9.69
69420;BMP280;71621;52.030;113.516;2023-09-19T14:50:31;93848.97;;;9.66
69420;BMP280;71621;52.030;113.516;2023-09-19T14:53:35;93842.72;;;9.57
69420;BMP280;71621;52.030;113.516;2023-09-19T14:56:43;93844.56;;;9.52
69420;BMP280;71621;52.030;113.516;2023-09-19T14:59:47;93848.44;;;9.47
69420;BMP280;71621;52.030;113.516;2023-09-19T15:02:50;93839.56;;;9.41
69420;BMP280;71621;52.030;113.516;2023-09-19T15:05:59;93845.00;;;9.45
69420;BMP280;71621;52.030;113.516;2023-09-19T15:09:03;93837.63;;;9.43
69420;BMP280;71621;52.030;113.516;2023-09-19T15:12:08;93837.06;;;9.47
69420;BMP280;71621;52.030;113.516;2023-09-19T15:15:12;93830.47;;;9.48
69420;BMP280;71621;52.030;113.516;2023-09-19T15:18:16;93832.91;;;9.42
69420;BMP280;71621;52.030;113.516;2023-09-19T15:21:19;93820.69;;;9.35
69420;BMP280;71621;52.030;113.516;2023-09-19T15:24:23;93831.97;;;9.33
69420;BMP280;71621;52.030;113.516;2023-09-19T15:27:29;93841.09;;;9.26
69420;BMP280;71621;52.030;113.516;2023-09-19T15:30:40;93829.69;;;9.23
69420;BMP280;71621;52.030;113.516;2023-09-19T15:33:43;93831.41;;;9.15
69420;BMP280;71621;52.030;113.516;2023-09-19T15:36:46;93824.53;;;9.08
69420;BMP280;71621;52.030;113.516;2023-09-19T15:39:50;93823.78;;;9.05
69420;BMP280;71621;52.030;113.516;2023-09-19T15:42:55;93826.19;;;8.97
69420;BMP280;71621;52.030;113.516;2023-09-19T15:46:01;93813.97;;;8.90
69420;BMP280;71621;52.030;113.516;2023-09-19T15:49:05;93813.97;;;8.90
69420;BMP280;71621;52.030;113.516;2023-09-19T15:52:09;93814.59;;;8.88
69420;BMP280;71621;52.030;113.516;2023-09-19T15:55:12;93811.59;;;8.78
69420;BMP280;71621;52.030;113.516;2023-09-19T15:58:17;93813.50;;;8.76
69420;BMP280;71621;52.030;113.516;2023-09-19T16:01:22;93816.59;;;8.68
69420;BMP280;71621;52.030;113.516;2023-09-19T16:04:26;93822.34;;;8.60
69420;BMP280;71621;52.030;113.516;2023-09-19T16:07:30;93830.81;;;8.55
69420;BMP280;71621;52.030;113.516;2023-09-19T16:10:35;93828.53;;;8.47
69420;BMP280;71621;52.030;113.516;2023-09-19T16:13:42;93822.19;;;8.37
69420;BMP280;71621;52.030;113.516;2023-09-19T16:16:48;93822.13;;;8.35
69420;BMP280;71621;52.030;113.516;2023-09-19T16:19:53;93812.75;;;8.34
69420;BMP280;71621;52.030;113.516;2023-09-19T16:22:57;93816.59;;;8.28
69420;BMP280;71621;52.030;113.516;2023-09-19T16:26:06;93817.19;;;8.27
69420;BMP280;71621;52.030;113.516;2023-09-19T16:29:10;93812.28;;;8.19
69420;BMP280;71621;52.030;113.516;2023-09-19T16:32:14;93820.88;;;8.18
69420;BMP280;71621;52.030;113.516;2023-09-19T16:35:18;93816.09;;;8.14
69420;BMP280;71621;52.030;113.516;2023-09-19T16:38:24;93813.44;;;8.14
69420;BMP280;71621;52.030;113.516;2023-09-19T16:41:28;93803.31;;;8.11
69420;BMP280;71621;52.030;113.516;2023-09-19T16:44:32;93827.13;;;8.07
69420;BMP280;71621;52.030;113.516;2023-09-19T16:47:37;93827.31;;;7.93
69420;BMP280;71621;52.030;113.516;2023-09-19T16:50:41;93829.59;;;7.83
69420;BMP280;71621;52.030;113.516;2023-09-19T16:53:46;93833.63;;;7.66
69420;BMP280;71621;52.030;113.516;2023-09-19T16:56:52;93832.63;;;7.57
69420;BMP280;71621;52.030;113.516;2023-09-19T16:59:56;93829.97;;;7.57
69420;BMP280;71621;52.030;113.516;2023-09-19T17:02:59;93832.56;;;7.55
69420;BMP280;71621;52.030;113.516;2023-09-19T17:06:03;93829.56;;;7.47
69420;BMP280;71621;52.030;113.516;2023-09-19T17:09:08;93828.28;;;7.48
69420;BMP280;71621;52.030;113.516;2023-09-19T17:12:13;93829.75;;;7.51
69420;BMP280;71621;52.030;113.516;2023-09-19T17:15:17;93819.19;;;7.53
69420;BMP280;71621;52.030;113.516;2023-09-19T17:18:21;93823.22;;;7.54
69420;BMP280;71621;52.030;113.516;2023-09-19T17:21:26;93825.19;;;7.54
69420;BMP280;71621;52.030;113.516;2023-09-19T17:24:29;93819.97;;;7.56
69420;BMP280;71621;52.030;113.516;2023-09-19T17:27:33;93821.28;;;7.57
69420;BMP280;71621;52.030;113.516;2023-09-19T17:30:37;93813.25;;;7.55
69420;BMP280;71621;52.030;113.516;2023-09-19T17:33:43;93818.03;;;7.58
69420;BMP280;71621;52.030;113.516;2023-09-19T17:36:48;93821.38;;;7.59
69420;BMP280;71621;52.030;113.516;2023-09-19T17:39:51;93824.44;;;7.51
69420;BMP280;71621;52.030;113.516;2023-09-19T17:42:55;93823.53;;;7.45
69420;BMP280;71621;52.030;113.516;2023-09-19T17:46:12;93820.91;;;7.47
69420;BMP280;71621;52.030;113.516;2023-09-19T17:49:16;93821.91;;;7.38
69420;BMP280;71621;52.030;113.516;2023-09-19T17:52:20;93815.91;;;7.37
69420;BMP280;71621;52.030;113.516;2023-09-19T17:55:24;93822.97;;;7.30